sensor_id;sensor_type;location;lat;lon;timestamp;pressure;altitude;pressure_sealevel;temperature;humidity
38530;BME280;24301;54.332;48.386;2023-05-21T00:02:17;99708.69;;;14.74;67.89
38530;BME280;24301;54.332;48.386;2023-05-21T00:04:45;99714.06;;;14.71;68.00
38530;BME280;24301;54.332;48.386;2023-05-21T00:07:12;99709.69;;;14.68;68.13
38530;BME280;24301;54.332;48.386;2023-05-21T00:09:40;99711.50;;;14.64;67.99
38530;BME280;24301;54.332;48.386;2023-05-21T00:12:07;99709.78;;;14.62;68.11
38530;BME280;24301;54.332;48.386;2023-05-21T00:14:33;99711.56;;;14.61;68.09
38530;BME280;24301;54.332;48.386;2023-05-21T00:16:59;99712.50;;;14.59;68.20
38530;BME280;24301;54.332;48.386;2023-05-21T00:19:26;99716.94;;;14.57;68.01
38530;BME280;24301;54.332;48.386;2023-05-21T00:21:52;99716.09;;;14.56;67.93
38530;BME280;24301;54.332;48.386;2023-05-21T00:24:19;99715.25;;;14.54;68.07
38530;BME280;24301;54.332;48.386;2023-05-21T00:26:45;99724.09;;;14.53;68.17
38530;BME280;24301;54.332;48.386;2023-05-21T00:29:11;99725.84;;;14.51;68.19
38530;BME280;24301;54.332;48.386;2023-05-21T00:31:36;99725.91;;;14.49;68.20
38530;BME280;24301;54.332;48.386;2023-05-21T00:34:02;99730.28;;;14.50;68.30
38530;BME280;24301;54.332;48.386;2023-05-21T00:36:28;99726.81;;;14.47;68.49
38530;BME280;24301;54.332;48.386;2023-05-21T00:38:56;99731.16;;;14.51;68.38
38530;BME280;24301;54.332;48.386;2023-05-21T00:41:22;99734.69;;;14.51;68.21
38530;BME280;24301;54.332;48.386;2023-05-21T00:43:48;99740.78;;;14.55;68.25
38530;BME280;24301;54.332;48.386;2023-05-21T00:46:18;99737.25;;;14.56;68.15
38530;BME280;24301;54.332;48.386;2023-05-21T00:48:45;99739.84;;;14.58;68.15
38530;BME280;24301;54.332;48.386;2023-05-21T00:51:15;99735.47;;;14.57;67.97
38530;BME280;24301;54.332;48.386;2023-05-21T00:53:43;99751.25;;;14.61;68.10
38530;BME280;24301;54.332;48.386;2023-05-21T00:56:10;99737.13;;;14.62;67.84
38530;BME280;24301;54.332;48.386;2023-05-21T00:58:38;99740.50;;;14.71;67.59
38530;BME280;24301;54.332;48.386;2023-05-21T01:01:04;99738.72;;;14.73;67.46
38530;BME280;24301;54.332;48.386;2023-05-21T01:03:32;99745.56;;;14.83;67.24
38530;BME280;24301;54.332;48.386;2023-05-21T01:06:04;99744.56;;;14.89;66.92
38530;BME280;24301;54.332;48.386;2023-05-21T01:08:31;99749.69;;;14.97;66.83
38530;BME280;24301;54.332;48.386;2023-05-21T01:11:00;99746.88;;;15.06;66.51
38530;BME280;24301;54.332;48.386;2023-05-21T01:13:28;99749.78;;;15.36;66.01
38530;BME280;24301;54.332;48.386;2023-05-21T01:15:54;99741.03;;;15.70;64.72
38530;BME280;24301;54.332;48.386;2023-05-21T01:18:22;99751.75;;;16.03;63.72
38530;BME280;24301;54.332;48.386;2023-05-21T01:20:49;99751.00;;;16.34;62.92
38530;BME280;24301;54.332;48.386;2023-05-21T01:23:18;99755.47;;;16.65;62.18
38530;BME280;24301;54.332;48.386;2023-05-21T01:25:45;99756.53;;;16.91;61.54
38530;BME280;24301;54.332;48.386;2023-05-21T01:28:12;99752.63;;;17.05;60.32
38530;BME280;24301;54.332;48.386;2023-05-21T01:30:40;99760.28;;;17.16;59.20
38530;BME280;24301;54.332;48.386;2023-05-21T01:35:53;99764.16;;;17.64;57.80
38530;BME280;24301;54.332;48.386;2023-05-21T01:41:09;99759.22;;;18.08;56.20
38530;BME280;24301;54.332;48.386;2023-05-21T01:43:37;99770.59;;;18.14;55.59
38530;BME280;24301;54.332;48.386;2023-05-21T01:46:04;99769.97;;;18.32;55.35
38530;BME280;24301;54.332;48.386;2023-05-21T01:48:33;99774.22;;;18.63;54.52
38530;BME280;24301;54.332;48.386;2023-05-21T01:51:02;99771.94;;;19.03;53.46
38530;BME280;24301;54.332;48.386;2023-05-21T01:53:28;99770.94;;;19.30;52.59
38530;BME280;24301;54.332;48.386;2023-05-21T01:55:54;99770.41;;;19.44;51.63
38530;BME280;24301;54.332;48.386;2023-05-21T01:58:20;99772.53;;;19.58;51.01
38530;BME280;24301;54.332;48.386;2023-05-21T02:00:47;99768.69;;;19.87;50.36
38530;BME280;24301;54.332;48.386;2023-05-21T02:03:16;99775.00;;;20.08;49.57
38530;BME280;24301;54.332;48.386;2023-05-21T02:05:43;99779.09;;;20.38;49.28
38530;BME280;24301;54.332;48.386;2023-05-21T02:08:09;99773.09;;;20.53;48.25
38530;BME280;24301;54.332;48.386;2023-05-21T02:10:36;99772.31;;;20.72;48.02
38530;BME280;24301;54.332;48.386;2023-05-21T02:13:02;99779.03;;;21.02;47.02
38530;BME280;24301;54.332;48.386;2023-05-21T02:15:29;99785.22;;;21.42;45.82
38530;BME280;24301;54.332;48.386;2023-05-21T02:17:55;99782.09;;;21.71;45.07
38530;BME280;24301;54.332;48.386;2023-05-21T02:20:23;99780.84;;;21.97;44.58
38530;BME280;24301;54.332;48.386;2023-05-21T02:22:48;99787.66;;;22.22;43.70
38530;BME280;24301;54.332;48.386;2023-05-21T02:25:16;99787.00;;;22.34;43.04
38530;BME280;24301;54.332;48.386;2023-05-21T02:27:43;99787.69;;;22.57;42.68
38530;BME280;24301;54.332;48.386;2023-05-21T02:30:11;99790.06;;;22.97;41.78
38530;BME280;24301;54.332;48.386;2023-05-21T02:32:38;99794.06;;;23.06;41.02
38530;BME280;24301;54.332;48.386;2023-05-21T02:35:08;99796.00;;;23.53;40.88
38530;BME280;24301;54.332;48.386;2023-05-21T02:37:35;99794.88;;;24.22;40.45
38530;BME280;24301;54.332;48.386;2023-05-21T02:40:03;99792.06;;;24.39;38.80
38530;BME280;24301;54.332;48.386;2023-05-21T02:42:33;99783.34;;;24.50;38.93
38530;BME280;24301;54.332;48.386;2023-05-21T02:45:01;99787.38;;;25.03;38.15
38530;BME280;24301;54.332;48.386;2023-05-21T02:47:30;99789.00;;;25.34;37.70
38530;BME280;24301;54.332;48.386;2023-05-21T02:49:58;99794.84;;;25.97;36.79
38530;BME280;24301;54.332;48.386;2023-05-21T02:52:25;99790.97;;;26.16;35.85
38530;BME280;24301;54.332;48.386;2023-05-21T02:54:51;99798.59;;;26.50;35.30
38530;BME280;24301;54.332;48.386;2023-05-21T02:57:17;99795.78;;;26.77;34.91
38530;BME280;24301;54.332;48.386;2023-05-21T02:59:44;99796.47;;;26.81;34.60
38530;BME280;24301;54.332;48.386;2023-05-21T03:02:11;99800.81;;;26.96;34.21
38530;BME280;24301;54.332;48.386;2023-05-21T03:04:37;99798.00;;;26.85;33.92
38530;BME280;24301;54.332;48.386;2023-05-21T03:07:12;99808.16;;;26.94;33.46
38530;BME280;24301;54.332;48.386;2023-05-21T03:09:39;99805.06;;;26.73;33.29
38530;BME280;24301;54.332;48.386;2023-05-21T03:12:07;99820.44;;;26.86;33.07
38530;BME280;24301;54.332;48.386;2023-05-21T03:14:33;99831.66;;;27.18;32.92
38530;BME280;24301;54.332;48.386;2023-05-21T03:17:00;99834.34;;;27.31;33.21
38530;BME280;24301;54.332;48.386;2023-05-21T03:19:31;99845.22;;;27.56;33.02
38530;BME280;24301;54.332;48.386;2023-05-21T03:22:02;99844.56;;;27.52;32.56
38530;BME280;24301;54.332;48.386;2023-05-21T03:24:28;99846.66;;;27.86;32.40
38530;BME280;24301;54.332;48.386;2023-05-21T03:26:59;99853.56;;;27.90;31.88
38530;BME280;24301;54.332;48.386;2023-05-21T03:29:27;99844.50;;;28.39;31.64
38530;BME280;24301;54.332;48.386;2023-05-21T03:31:54;99848.19;;;28.74;31.20
38530;BME280;24301;54.332;48.386;2023-05-21T03:34:20;99853.84;;;29.07;30.78
38530;BME280;24301;54.332;48.386;2023-05-21T03:36:48;99855.06;;;29.14;30.44
38530;BME280;24301;54.332;48.386;2023-05-21T03:39:16;99860.16;;;29.64;29.69
38530;BME280;24301;54.332;48.386;2023-05-21T03:41:42;99855.44;;;30.12;29.04
38530;BME280;24301;54.332;48.386;2023-05-21T03:44:14;99862.63;;;30.67;28.56
38530;BME280;24301;54.332;48.386;2023-05-21T03:47:00;99859.47;;;30.83;28.08
38530;BME280;24301;54.332;48.386;2023-05-21T03:49:29;99866.34;;;30.87;27.90
38530;BME280;24301;54.332;48.386;2023-05-21T03:51:56;99862.50;;;30.90;27.54
38530;BME280;24301;54.332;48.386;2023-05-21T03:54:23;99871.22;;;30.93;28.06
38530;BME280;24301;54.332;48.386;2023-05-21T03:56:52;99867.50;;;30.94;28.00
38530;BME280;24301;54.332;48.386;2023-05-21T03:59:18;99877.38;;;31.17;27.53
38530;BME280;24301;54.332;48.386;2023-05-21T04:01:45;99870.59;;;31.22;27.27
38530;BME280;24301;54.332;48.386;2023-05-21T04:04:14;99878.44;;;31.04;27.52
38530;BME280;24301;54.332;48.386;2023-05-21T04:06:40;99874.78;;;31.15;27.45
38530;BME280;24301;54.332;48.386;2023-05-21T04:09:13;99874.03;;;31.24;27.18
38530;BME280;24301;54.332;48.386;2023-05-21T04:11:39;99880.34;;;31.35;27.29
38530;BME280;24301;54.332;48.386;2023-05-21T04:14:05;99885.63;;;31.67;26.59
38530;BME280;24301;54.332;48.386;2023-05-21T04:16:31;99882.88;;;31.89;26.39
38530;BME280;24301;54.332;48.386;2023-05-21T04:19:00;99893.16;;;31.95;26.07
38530;BME280;24301;54.332;48.386;2023-05-21T04:21:28;99894.53;;;32.30;25.85
38530;BME280;24301;54.332;48.386;2023-05-21T04:23:53;99895.28;;;32.42;25.63
38530;BME280;24301;54.332;48.386;2023-05-21T04:26:34;99909.00;;;32.41;25.51
38530;BME280;24301;54.332;48.386;2023-05-21T04:29:01;99900.72;;;32.32;25.86
38530;BME280;24301;54.332;48.386;2023-05-21T04:31:29;99901.03;;;32.98;25.35
38530;BME280;24301;54.332;48.386;2023-05-21T04:33:57;99904.91;;;33.53;24.36
38530;BME280;24301;54.332;48.386;2023-05-21T04:36:24;99916.13;;;33.78;24.35
38530;BME280;24301;54.332;48.386;2023-05-21T04:38:54;99912.41;;;34.07;23.56
38530;BME280;24301;54.332;48.386;2023-05-21T04:41:21;99907.84;;;34.44;23.31
38530;BME280;24301;54.332;48.386;2023-05-21T04:43:47;99915.50;;;34.76;23.29
38530;BME280;24301;54.332;48.386;2023-05-21T04:46:15;99925.28;;;35.23;22.74
38530;BME280;24301;54.332;48.386;2023-05-21T04:48:41;99916.09;;;35.24;22.53
38530;BME280;24301;54.332;48.386;2023-05-21T04:51:08;99921.28;;;35.36;22.90
38530;BME280;24301;54.332;48.386;2023-05-21T04:53:34;99913.22;;;35.34;22.40
38530;BME280;24301;54.332;48.386;2023-05-21T04:56:00;99920.78;;;35.14;22.42
38530;BME280;24301;54.332;48.386;2023-05-21T04:58:29;99916.22;;;35.49;22.22
38530;BME280;24301;54.332;48.386;2023-05-21T05:00:58;99924.72;;;35.64;22.08
38530;BME280;24301;54.332;48.386;2023-05-21T05:03:28;99916.38;;;35.48;22.08
38530;BME280;24301;54.332;48.386;2023-05-21T05:05:55;99914.84;;;35.19;22.47
38530;BME280;24301;54.332;48.386;2023-05-21T05:08:21;99921.09;;;35.11;22.27
38530;BME280;24301;54.332;48.386;2023-05-21T05:10:48;99921.22;;;35.28;22.46
38530;BME280;24301;54.332;48.386;2023-05-21T05:13:14;99927.91;;;35.60;21.85
38530;BME280;24301;54.332;48.386;2023-05-21T05:15:41;99936.22;;;36.19;21.71
38530;BME280;24301;54.332;48.386;2023-05-21T05:18:07;99934.59;;;36.60;20.87
38530;BME280;24301;54.332;48.386;2023-05-21T05:20:33;99925.97;;;36.30;21.10
38530;BME280;24301;54.332;48.386;2023-05-21T05:23:00;99929.75;;;36.37;20.92
38530;BME280;24301;54.332;48.386;2023-05-21T05:25:26;99933.00;;;36.32;21.04
38530;BME280;24301;54.332;48.386;2023-05-21T05:27:51;99930.22;;;36.16;21.07
38530;BME280;24301;54.332;48.386;2023-05-21T05:30:18;99930.88;;;36.09;21.38
38530;BME280;24301;54.332;48.386;2023-05-21T05:32:45;99927.09;;;36.70;20.83
38530;BME280;24301;54.332;48.386;2023-05-21T05:35:11;99922.47;;;37.20;20.47
38530;BME280;24301;54.332;48.386;2023-05-21T05:37:37;99920.41;;;37.31;19.68
38530;BME280;24301;54.332;48.386;2023-05-21T05:40:05;99936.38;;;37.75;20.23
38530;BME280;24301;54.332;48.386;2023-05-21T05:42:33;99927.47;;;37.81;19.38
38530;BME280;24301;54.332;48.386;2023-05-21T05:45:03;99929.75;;;37.70;19.62
38530;BME280;24301;54.332;48.386;2023-05-21T05:47:30;99933.38;;;37.62;19.68
38530;BME280;24301;54.332;48.386;2023-05-21T05:49:56;99936.97;;;37.37;19.92
38530;BME280;24301;54.332;48.386;2023-05-21T05:52:22;99930.00;;;36.93;20.51
38530;BME280;24301;54.332;48.386;2023-05-21T05:54:48;99933.56;;;37.35;20.19
38530;BME280;24301;54.332;48.386;2023-05-21T05:57:14;99942.22;;;37.72;19.83
38530;BME280;24301;54.332;48.386;2023-05-21T05:59:40;99931.47;;;37.62;20.02
38530;BME280;24301;54.332;48.386;2023-05-21T06:02:06;99946.78;;;37.88;19.83
38530;BME280;24301;54.332;48.386;2023-05-21T06:04:32;99944.59;;;38.23;19.60
38530;BME280;24301;54.332;48.386;2023-05-21T06:06:58;99944.06;;;38.28;19.31
38530;BME280;24301;54.332;48.386;2023-05-21T06:09:27;99947.22;;;38.48;18.31
38530;BME280;24301;54.332;48.386;2023-05-21T06:11:54;99945.97;;;38.51;18.98
38530;BME280;24301;54.332;48.386;2023-05-21T06:14:20;99943.47;;;38.88;18.55
38530;BME280;24301;54.332;48.386;2023-05-21T06:16:47;99948.88;;;39.19;18.26
38530;BME280;24301;54.332;48.386;2023-05-21T06:19:13;99952.34;;;39.51;18.27
38530;BME280;24301;54.332;48.386;2023-05-21T06:21:39;99942.09;;;39.75;16.95
38530;BME280;24301;54.332;48.386;2023-05-21T06:24:06;99948.09;;;39.64;17.41
38530;BME280;24301;54.332;48.386;2023-05-21T06:26:32;99960.22;;;40.00;16.78
38530;BME280;24301;54.332;48.386;2023-05-21T06:28:59;99952.28;;;39.60;16.67
38530;BME280;24301;54.332;48.386;2023-05-21T06:31:25;99950.75;;;39.87;16.73
38530;BME280;24301;54.332;48.386;2023-05-21T06:33:51;99954.19;;;40.26;16.47
38530;BME280;24301;54.332;48.386;2023-05-21T06:36:17;99954.47;;;40.90;16.27
38530;BME280;24301;54.332;48.386;2023-05-21T06:38:43;99961.47;;;40.92;15.40
38530;BME280;24301;54.332;48.386;2023-05-21T06:41:10;99957.75;;;41.29;15.00
38530;BME280;24301;54.332;48.386;2023-05-21T06:43:46;99957.28;;;41.18;15.22
38530;BME280;24301;54.332;48.386;2023-05-21T06:46:31;99961.72;;;41.19;15.29
38530;BME280;24301;54.332;48.386;2023-05-21T06:48:57;99959.38;;;41.16;15.01
38530;BME280;24301;54.332;48.386;2023-05-21T06:51:26;99965.19;;;41.28;15.63
38530;BME280;24301;54.332;48.386;2023-05-21T06:53:54;99959.09;;;41.33;15.02
38530;BME280;24301;54.332;48.386;2023-05-21T06:56:21;99957.03;;;40.91;15.06
38530;BME280;24301;54.332;48.386;2023-05-21T06:58:47;99967.69;;;41.01;15.02
38530;BME280;24301;54.332;48.386;2023-05-21T07:01:15;99964.44;;;41.41;15.06
38530;BME280;24301;54.332;48.386;2023-05-21T07:03:41;99965.06;;;41.43;14.79
38530;BME280;24301;54.332;48.386;2023-05-21T07:06:07;99970.28;;;41.31;14.43
38530;BME280;24301;54.332;48.386;2023-05-21T07:08:36;99963.50;;;41.05;14.79
38530;BME280;24301;54.332;48.386;2023-05-21T07:11:02;99972.91;;;40.89;15.24
38530;BME280;24301;54.332;48.386;2023-05-21T07:13:29;99974.03;;;40.21;15.41
38530;BME280;24301;54.332;48.386;2023-05-21T07:15:55;99974.38;;;39.82;15.86
38530;BME280;24301;54.332;48.386;2023-05-21T07:18:21;99962.13;;;39.99;15.14
38530;BME280;24301;54.332;48.386;2023-05-21T07:20:46;99954.72;;;40.00;15.78
38530;BME280;24301;54.332;48.386;2023-05-21T07:23:14;99961.34;;;40.20;15.29
38530;BME280;24301;54.332;48.386;2023-05-21T07:25:41;99962.66;;;40.61;14.70
38530;BME280;24301;54.332;48.386;2023-05-21T07:28:07;99960.81;;;40.69;14.80
38530;BME280;24301;54.332;48.386;2023-05-21T07:30:34;99959.16;;;40.31;14.50
38530;BME280;24301;54.332;48.386;2023-05-21T07:33:01;99958.03;;;39.95;15.51
38530;BME280;24301;54.332;48.386;2023-05-21T07:35:27;99961.34;;;40.20;15.38
38530;BME280;24301;54.332;48.386;2023-05-21T07:37:54;99956.78;;;40.13;14.78
38530;BME280;24301;54.332;48.386;2023-05-21T07:40:20;99946.78;;;39.90;14.92
38530;BME280;24301;54.332;48.386;2023-05-21T07:42:46;99953.22;;;39.97;14.67
38530;BME280;24301;54.332;48.386;2023-05-21T07:45:13;99949.00;;;40.16;14.26
38530;BME280;24301;54.332;48.386;2023-05-21T07:47:44;99948.53;;;40.13;14.46
38530;BME280;24301;54.332;48.386;2023-05-21T07:50:13;99943.84;;;39.08;15.29
38530;BME280;24301;54.332;48.386;2023-05-21T07:52:39;99940.91;;;38.86;14.94
38530;BME280;24301;54.332;48.386;2023-05-21T07:55:05;99945.63;;;38.22;15.13
38530;BME280;24301;54.332;48.386;2023-05-21T07:57:34;99946.38;;;37.60;16.45
38530;BME280;24301;54.332;48.386;2023-05-21T08:00:02;99943.53;;;37.20;16.81
38530;BME280;24301;54.332;48.386;2023-05-21T08:02:41;99944.69;;;36.67;17.65
38530;BME280;24301;54.332;48.386;2023-05-21T08:05:08;99943.28;;;35.95;17.60
38530;BME280;24301;54.332;48.386;2023-05-21T08:07:35;99944.94;;;34.36;19.23
38530;BME280;24301;54.332;48.386;2023-05-21T08:10:02;99937.06;;;33.30;19.33
38530;BME280;24301;54.332;48.386;2023-05-21T08:12:31;99935.38;;;31.99;20.76
38530;BME280;24301;54.332;48.386;2023-05-21T08:14:57;99919.50;;;30.78;21.17
38530;BME280;24301;54.332;48.386;2023-05-21T08:17:24;99922.78;;;29.82;21.42
38530;BME280;24301;54.332;48.386;2023-05-21T08:19:50;99910.97;;;29.02;23.88
38530;BME280;24301;54.332;48.386;2023-05-21T08:22:17;99913.28;;;28.60;24.87
38530;BME280;24301;54.332;48.386;2023-05-21T08:24:44;99905.13;;;28.24;24.83
38530;BME280;24301;54.332;48.386;2023-05-21T08:27:11;99900.91;;;27.70;24.67
38530;BME280;24301;54.332;48.386;2023-05-21T08:29:41;99904.78;;;27.27;26.33
38530;BME280;24301;54.332;48.386;2023-05-21T08:32:07;99903.50;;;26.79;26.75
38530;BME280;24301;54.332;48.386;2023-05-21T08:34:34;99897.75;;;26.58;27.58
38530;BME280;24301;54.332;48.386;2023-05-21T08:37:16;99897.19;;;26.25;27.77
38530;BME280;24301;54.332;48.386;2023-05-21T08:39:58;99891.50;;;25.59;29.50
38530;BME280;24301;54.332;48.386;2023-05-21T08:42:39;99890.94;;;25.53;29.23
38530;BME280;24301;54.332;48.386;2023-05-21T08:45:11;99893.44;;;25.57;29.02
38530;BME280;24301;54.332;48.386;2023-05-21T08:47:42;99893.84;;;25.20;29.77
38530;BME280;24301;54.332;48.386;2023-05-21T08:50:12;99896.88;;;24.99;28.96
38530;BME280;24301;54.332;48.386;2023-05-21T08:52:40;99899.69;;;24.98;26.79
38530;BME280;24301;54.332;48.386;2023-05-21T08:55:08;99889.66;;;24.85;25.13
38530;BME280;24301;54.332;48.386;2023-05-21T08:57:41;99887.09;;;24.67;24.90
38530;BME280;24301;54.332;48.386;2023-05-21T09:00:07;99875.44;;;24.52;23.90
38530;BME280;24301;54.332;48.386;2023-05-21T09:02:34;99891.81;;;24.48;23.75
38530;BME280;24301;54.332;48.386;2023-05-21T09:05:08;99873.84;;;24.64;26.07
38530;BME280;24301;54.332;48.386;2023-05-21T09:08:41;99884.16;;;24.56;26.95
38530;BME280;24301;54.332;48.386;2023-05-21T09:11:00;99889.25;;;24.14;28.04
38530;BME280;24301;54.332;48.386;2023-05-21T09:13:33;99883.47;;;24.22;27.59
38530;BME280;24301;54.332;48.386;2023-05-21T09:16:04;99888.72;;;24.39;27.40
38530;BME280;24301;54.332;48.386;2023-05-21T09:18:31;99887.94;;;24.68;25.91
38530;BME280;24301;54.332;48.386;2023-05-21T09:21:27;99887.59;;;24.90;24.72
38530;BME280;24301;54.332;48.386;2023-05-21T09:23:58;99889.72;;;25.00;25.78
38530;BME280;24301;54.332;48.386;2023-05-21T09:26:26;99887.41;;;24.93;26.38
38530;BME280;24301;54.332;48.386;2023-05-21T09:28:58;99882.03;;;24.93;25.64
38530;BME280;24301;54.332;48.386;2023-05-21T09:31:25;99878.34;;;24.80;25.10
38530;BME280;24301;54.332;48.386;2023-05-21T09:33:53;99873.66;;;24.84;25.19
38530;BME280;24301;54.332;48.386;2023-05-21T09:36:21;99881.34;;;24.90;25.38
38530;BME280;24301;54.332;48.386;2023-05-21T09:38:48;99883.28;;;24.72;23.56
38530;BME280;24301;54.332;48.386;2023-05-21T09:41:14;99885.56;;;24.63;23.20
38530;BME280;24301;54.332;48.386;2023-05-21T09:43:41;99877.38;;;24.65;22.68
38530;BME280;24301;54.332;48.386;2023-05-21T17:24:49;99891.75;;;19.29;40.07
38530;BME280;24301;54.332;48.386;2023-05-21T17:27:15;99886.28;;;19.33;39.86
38530;BME280;24301;54.332;48.386;2023-05-21T17:29:41;99897.69;;;19.37;39.71
38530;BME280;24301;54.332;48.386;2023-05-21T17:32:09;99913.56;;;19.40;40.28
38530;BME280;24301;54.332;48.386;2023-05-21T17:34:35;99904.41;;;19.47;39.99
38530;BME280;24301;54.332;48.386;2023-05-21T17:37:01;99893.75;;;19.47;39.88
38530;BME280;24301;54.332;48.386;2023-05-21T17:39:27;99898.31;;;19.44;40.52
38530;BME280;24301;54.332;48.386;2023-05-21T17:41:54;99902.03;;;19.39;40.77
38530;BME280;24301;54.332;48.386;2023-05-21T17:44:21;99889.63;;;19.38;40.57
38530;BME280;24301;54.332;48.386;2023-05-21T17:46:50;99894.25;;;19.33;40.26
38530;BME280;24301;54.332;48.386;2023-05-21T17:49:16;99879.09;;;19.35;39.53
38530;BME280;24301;54.332;48.386;2023-05-21T17:51:42;99899.19;;;19.44;39.25
38530;BME280;24301;54.332;48.386;2023-05-21T17:54:09;99886.81;;;19.43;39.26
38530;BME280;24301;54.332;48.386;2023-05-21T17:56:35;99884.25;;;19.40;38.19
38530;BME280;24301;54.332;48.386;2023-05-21T17:59:05;99884.72;;;19.51;37.66
38530;BME280;24301;54.332;48.386;2023-05-21T18:01:36;99882.75;;;19.57;37.60
38530;BME280;24301;54.332;48.386;2023-05-21T18:04:03;99892.72;;;19.51;37.66
38530;BME280;24301;54.332;48.386;2023-05-21T18:06:30;99893.75;;;19.47;37.39
38530;BME280;24301;54.332;48.386;2023-05-21T18:08:57;99879.50;;;19.48;37.03
38530;BME280;24301;54.332;48.386;2023-05-21T18:11:24;99885.75;;;19.47;37.19
38530;BME280;24301;54.332;48.386;2023-05-21T18:13:52;99891.25;;;19.43;37.84
38530;BME280;24301;54.332;48.386;2023-05-21T18:16:18;99891.38;;;19.39;37.84
38530;BME280;24301;54.332;48.386;2023-05-21T18:18:44;99881.72;;;19.37;38.23
38530;BME280;24301;54.332;48.386;2023-05-21T18:21:10;99884.50;;;19.34;38.50
38530;BME280;24301;54.332;48.386;2023-05-21T18:23:37;99889.06;;;19.30;38.47
38530;BME280;24301;54.332;48.386;2023-05-21T18:26:03;99880.28;;;19.27;38.31
38530;BME280;24301;54.332;48.386;2023-05-21T18:28:31;99877.75;;;19.23;38.80
38530;BME280;24301;54.332;48.386;2023-05-21T18:31:01;99884.25;;;19.15;39.16
38530;BME280;24301;54.332;48.386;2023-05-21T18:33:29;99882.50;;;19.15;38.57
38530;BME280;24301;54.332;48.386;2023-05-21T18:35:56;99879.88;;;19.14;38.97
38530;BME280;24301;54.332;48.386;2023-05-21T18:38:22;99879.94;;;19.12;38.57
38530;BME280;24301;54.332;48.386;2023-05-21T18:40:51;99885.38;;;19.09;39.01
38530;BME280;24301;54.332;48.386;2023-05-21T18:43:17;99881.06;;;19.05;39.02
38530;BME280;24301;54.332;48.386;2023-05-21T18:45:45;99886.50;;;19.02;38.79
38530;BME280;24301;54.332;48.386;2023-05-21T18:48:11;99881.16;;;19.02;38.28
38530;BME280;24301;54.332;48.386;2023-05-21T18:50:39;99882.78;;;19.06;38.00
38530;BME280;24301;54.332;48.386;2023-05-21T18:53:05;99888.22;;;19.03;37.94
38530;BME280;24301;54.332;48.386;2023-05-21T18:55:31;99883.72;;;19.05;37.85
38530;BME280;24301;54.332;48.386;2023-05-21T18:57:57;99886.50;;;19.02;37.87
38530;BME280;24301;54.332;48.386;2023-05-21T19:00:23;99881.31;;;18.97;37.80
38530;BME280;24301;54.332;48.386;2023-05-21T19:02:50;99877.78;;;18.96;38.43
38530;BME280;24301;54.332;48.386;2023-05-21T19:05:16;99884.16;;;18.91;39.09
38530;BME280;24301;54.332;48.386;2023-05-21T19:07:42;99884.28;;;18.88;39.03
38530;BME280;24301;54.332;48.386;2023-05-21T19:10:10;99879.13;;;18.83;39.14
38530;BME280;24301;54.332;48.386;2023-05-21T19:12:36;99883.72;;;18.78;39.52
38530;BME280;24301;54.332;48.386;2023-05-21T19:15:05;99883.94;;;18.72;39.02
38530;BME280;24301;54.332;48.386;2023-05-21T19:17:34;99878.63;;;18.72;39.16
38530;BME280;24301;54.332;48.386;2023-05-21T19:20:02;99877.84;;;18.68;39.43
38530;BME280;24301;54.332;48.386;2023-05-21T19:22:31;99883.09;;;18.71;38.83
38530;BME280;24301;54.332;48.386;2023-05-21T19:24:57;99878.63;;;18.72;38.76
38530;BME280;24301;54.332;48.386;2023-05-21T19:27:23;99872.59;;;18.66;38.90
38530;BME280;24301;54.332;48.386;2023-05-21T19:29:49;99879.69;;;18.66;38.82
38530;BME280;24301;54.332;48.386;2023-05-21T19:32:14;99869.94;;;18.66;38.32
38530;BME280;24301;54.332;48.386;2023-05-21T19:34:41;99874.22;;;18.71;37.85
38530;BME280;24301;54.332;48.386;2023-05-21T19:37:07;99874.22;;;18.71;38.15
38530;BME280;24301;54.332;48.386;2023-05-21T19:39:37;99872.53;;;18.68;38.26
38530;BME280;24301;54.332;48.386;2023-05-21T19:42:03;99869.94;;;18.66;37.84
38530;BME280;24301;54.332;48.386;2023-05-21T19:44:29;99868.09;;;18.69;37.54
38530;BME280;24301;54.332;48.386;2023-05-21T19:46:55;99868.94;;;18.69;37.62
38530;BME280;24301;54.332;48.386;2023-05-21T19:49:21;99870.63;;;18.72;37.96
38530;BME280;24301;54.332;48.386;2023-05-21T19:51:47;99867.19;;;18.68;38.37
38530;BME280;24301;54.332;48.386;2023-05-21T19:54:13;99869.03;;;18.66;37.97
38530;BME280;24301;54.332;48.386;2023-05-21T19:56:38;99873.50;;;18.65;37.50
38530;BME280;24301;54.332;48.386;2023-05-21T19:59:04;99867.31;;;18.65;37.74
38530;BME280;24301;54.332;48.386;2023-05-21T20:01:30;99874.59;;;18.60;37.76
38530;BME280;24301;54.332;48.386;2023-05-21T20:03:59;99865.75;;;18.59;37.55
38530;BME280;24301;54.332;48.386;2023-05-21T20:06:26;99864.09;;;18.55;38.55
38530;BME280;24301;54.332;48.386;2023-05-21T20:08:51;99864.25;;;18.50;38.79
38530;BME280;24301;54.332;48.386;2023-05-21T20:11:17;99860.94;;;18.44;39.08
38530;BME280;24301;54.332;48.386;2023-05-21T20:13:44;99867.28;;;18.40;39.44
38530;BME280;24301;54.332;48.386;2023-05-21T20:16:15;99863.78;;;18.37;39.18
38530;BME280;24301;54.332;48.386;2023-05-21T20:18:43;99872.59;;;18.40;38.21
38530;BME280;24301;54.332;48.386;2023-05-21T20:21:15;99863.91;;;18.34;39.21
38530;BME280;24301;54.332;48.386;2023-05-21T20:23:48;99880.97;;;18.27;41.26
38530;BME280;24301;54.332;48.386;2023-05-21T20:26:14;99877.72;;;18.17;41.72
38530;BME280;24301;54.332;48.386;2023-05-21T20:28:40;99881.56;;;18.08;41.65
38530;BME280;24301;54.332;48.386;2023-05-21T20:31:06;99873.44;;;18.13;39.51
38530;BME280;24301;54.332;48.386;2023-05-21T20:33:33;99884.84;;;18.17;40.30
38530;BME280;24301;54.332;48.386;2023-05-21T20:36:02;99881.41;;;18.13;40.15
38530;BME280;24301;54.332;48.386;2023-05-21T20:38:28;99870.84;;;18.12;39.97